createdAt,value
2023-05-15T00:00:42.000Z,83.2
2023-05-15T00:02:06.516Z,83.2
2023-05-15T00:03:22.706Z,83.3
2023-05-15T00:04:30.000Z,83.2
2023-05-15T00:05:47.000Z,83.1
2023-05-15T00:07:03.000Z,83.1
2023-05-15T00:08:19.000Z,83.2
2023-05-15T00:09:43.433Z,83.3
2023-05-15T00:10:51.000Z,83.3
2023-05-15T00:12:08.000Z,83.1
2023-05-15T00:13:23.000Z,83.1
2023-05-15T00:14:39.000Z,83.4
2023-05-15T00:15:55.000Z,83.1
2023-05-15T00:17:19.613Z,83.1
2023-05-15T00:18:36.047Z,83.1
2023-05-15T00:19:52.273Z,83.1
2023-05-15T00:21:00.000Z,82.9
2023-05-15T00:22:16.000Z,82.8
2023-05-15T00:23:32.000Z,82.6
2023-05-15T00:24:57.031Z,82.6
2023-05-15T00:26:13.211Z,82.5
2023-05-15T00:27:29.164Z,82.6
2023-05-15T00:28:37.000Z,82.7
2023-05-15T00:30:00.816Z,82.8
2023-05-15T00:31:09.000Z,82.9
2023-05-15T00:32:33.198Z,83.1
2023-05-15T00:33:49.393Z,83.2
2023-05-15T00:34:57.000Z,83.1
2023-05-15T00:36:13.000Z,83.3
2023-05-15T00:37:37.729Z,83.3
2023-05-15T00:38:53.923Z,83.8
2023-05-15T00:40:02.000Z,83.8
2023-05-15T00:41:26.310Z,84
2023-05-15T00:42:42.751Z,83.8
2023-05-15T00:43:50.000Z,84.3
2023-05-15T00:45:07.000Z,84.8
2023-05-15T00:46:30.344Z,84.6
2023-05-15T00:47:38.000Z,84.5
2023-05-15T00:49:02.733Z,84.9
2023-05-15T00:50:18.927Z,85.2
2023-05-15T00:52:02.159Z,85.3
2023-05-15T00:52:43.000Z,85.5
2023-05-15T00:53:59.000Z,85.7
2023-05-15T00:55:23.458Z,85.8
2023-05-15T00:56:31.000Z,86
2023-05-15T00:57:55.845Z,86.2
2023-05-15T00:59:04.000Z,86.3
2023-05-15T01:00:20.000Z,86.3
2023-05-15T01:01:44.674Z,86.8
2023-05-15T01:03:00.862Z,87.1
2023-05-15T01:04:08.000Z,87
2023-05-15T01:05:32.025Z,87
2023-05-15T01:06:48.219Z,87.3
2023-05-15T01:07:56.000Z,87.9
2023-05-15T01:09:12.000Z,87.8
2023-05-15T01:10:29.000Z,87.7
2023-05-15T01:11:53.244Z,88.2
2023-05-15T01:13:09.432Z,88
2023-05-15T01:14:17.000Z,88.4
2023-05-15T01:15:33.000Z,88.4
2023-05-15T01:16:58.012Z,88.4
2023-05-15T01:18:14.214Z,88.5
2023-05-15T01:19:30.155Z,89.1
2023-05-15T01:20:38.000Z,89.3
2023-05-15T01:21:53.000Z,89.7
2023-05-15T01:23:10.000Z,89.8
2023-05-15T01:24:26.000Z,90.2
2023-05-15T01:25:42.000Z,90.3
2023-05-15T01:26:58.000Z,90.3
2023-05-15T01:28:14.000Z,91.2
2023-05-15T01:29:38.978Z,91.2
2023-05-15T01:30:55.159Z,91.3
2023-05-15T01:32:03.000Z,91.6
2023-05-15T01:33:27.304Z,91
2023-05-15T01:34:35.000Z,91
2023-05-15T01:35:59.932Z,90.8
2023-05-15T01:37:08.000Z,91.5
2023-05-15T01:38:31.344Z,91.8
2023-05-15T01:39:47.534Z,91.7
2023-05-15T01:40:55.000Z,91.7
2023-05-15T01:42:11.000Z,91.8
2023-05-15T01:43:36.114Z,91.8
2023-05-15T01:44:44.000Z,92
2023-05-15T01:46:00.000Z,92
2023-05-15T01:47:16.000Z,91.8
2023-05-15T01:48:40.895Z,91.8
2023-05-15T01:49:56.838Z,92
2023-05-15T01:51:05.000Z,92.4
2023-05-15T01:52:21.000Z,92.4
2023-05-15T01:53:45.669Z,92.4
2023-05-15T01:54:53.000Z,92.5
2023-05-15T01:56:17.080Z,92.4
2023-05-15T01:57:25.000Z,92.3
2023-05-15T01:58:41.000Z,92.4
2023-05-15T01:59:57.000Z,92.7
2023-05-15T02:01:21.597Z,92.3
2023-05-15T02:02:30.000Z,92.6
2023-05-15T02:03:54.229Z,92.5
2023-05-15T02:05:02.000Z,92.4
2023-05-15T02:06:26.617Z,92.3
2023-05-15T02:07:34.000Z,92.3
2023-05-15T02:08:50.000Z,92.4
2023-05-15T02:10:15.207Z,92.6
2023-05-15T02:11:31.397Z,92.7
2023-05-15T02:12:46.358Z,92.4
2023-05-15T02:14:02.806Z,92.7
2023-05-15T02:15:18.746Z,92.8
2023-05-15T02:16:35.184Z,92.9
2023-05-15T02:17:51.379Z,92.8
2023-05-15T02:19:07.327Z,93.2
2023-05-15T02:20:23.770Z,92.9
2023-05-15T02:21:31.000Z,93
2023-05-15T02:22:48.000Z,92.9
2023-05-15T02:24:04.000Z,92.8
2023-05-15T02:25:20.000Z,92.6
2023-05-15T02:26:44.489Z,93.1
2023-05-15T02:27:52.000Z,93
2023-05-15T02:29:08.000Z,92.8
2023-05-15T02:30:24.000Z,92.9
2023-05-15T02:31:48.279Z,92.6
2023-05-15T02:32:56.000Z,92.8
2023-05-15T02:34:20.913Z,92.8
2023-05-15T02:35:29.000Z,92.6
2023-05-15T02:36:45.000Z,92.5
2023-05-15T02:38:01.000Z,92.5
2023-05-15T02:39:17.000Z,92.4
2023-05-15T02:40:33.000Z,92.2
2023-05-15T02:41:50.000Z,92.1
2023-05-15T02:43:06.000Z,91.9
2023-05-15T02:44:30.516Z,91.5
2023-05-15T02:45:45.677Z,91.6
2023-05-15T02:47:01.869Z,91.9
2023-05-15T02:48:18.060Z,91.8
2023-05-15T02:49:34.252Z,91.9
2023-05-15T02:50:50.444Z,91.8
2023-05-15T02:51:58.000Z,91.6
2023-05-15T02:53:22.833Z,91.5
2023-05-15T02:54:38.782Z,91.3
2023-05-15T02:55:47.000Z,91.4
2023-05-15T02:57:11.417Z,91.5
2023-05-15T02:58:27.606Z,91.6
2023-05-15T02:59:35.000Z,91.6
2023-05-15T03:00:59.992Z,91.7
2023-05-15T03:02:15.203Z,91.8
2023-05-15T03:03:23.000Z,91.9
2023-05-15T03:04:47.347Z,92.1
2023-05-15T03:05:55.000Z,91.9
2023-05-15T03:07:19.734Z,91.8
2023-05-15T03:08:28.000Z,91.6
2023-05-15T03:09:44.000Z,91.7
2023-05-15T03:11:00.000Z,91.9
2023-05-15T03:12:24.509Z,91.9
2023-05-15T03:13:40.949Z,91.6
2023-05-15T03:14:49.000Z,91.5
2023-05-15T03:16:13.357Z,91.6
2023-05-15T03:17:29.525Z,91.6
2023-05-15T03:18:36.000Z,91.7
2023-05-15T03:20:00.687Z,91.8
2023-05-15T03:21:09.000Z,91.9
2023-05-15T03:22:24.000Z,91.8
2023-05-15T03:23:48.536Z,92
2023-05-15T03:25:04.485Z,91.8
2023-05-15T03:26:20.938Z,91.7
2023-05-15T03:27:29.000Z,91.4
2023-05-15T03:28:45.000Z,91.5
2023-05-15T03:30:01.000Z,91.6
2023-05-15T03:31:25.696Z,91.7
2023-05-15T03:32:41.647Z,91.6
2023-05-15T03:33:57.840Z,91.5
2023-05-15T03:35:14.035Z,91.5
2023-05-15T03:36:22.000Z,91.7
2023-05-15T03:37:38.000Z,91.6
2023-05-15T03:39:01.632Z,91.3
2023-05-15T03:40:10.000Z,91.5
2023-05-15T03:41:26.000Z,91.5
2023-05-15T03:42:50.213Z,91.6
2023-05-15T03:44:06.653Z,91.4
2023-05-15T03:45:22.846Z,91.3
2023-05-15T03:46:39.041Z,91
2023-05-15T03:47:47.000Z,91.3
2023-05-15T03:49:03.000Z,91.3
2023-05-15T03:50:27.374Z,91.2
2023-05-15T03:51:35.000Z,91.1
2023-05-15T03:53:00.003Z,91.3
2023-05-15T03:54:08.000Z,91
2023-05-15T03:55:31.166Z,91
2023-05-15T03:56:39.000Z,91.5
2023-05-15T03:58:03.805Z,91.3
2023-05-15T03:59:11.000Z,91
2023-05-15T04:00:28.000Z,91.1
2023-05-15T04:01:44.000Z,91.2
2023-05-15T04:02:48.000Z,91.1
2023-05-15T04:03:00.000Z,91.2
2023-05-15T04:04:16.000Z,90.9
2023-05-15T04:05:40.962Z,91
2023-05-15T04:06:57.153Z,91.1
2023-05-15T04:08:13.346Z,91.1
2023-05-15T04:10:37.000Z,90.8
2023-05-15T04:11:52.000Z,90.5
2023-05-15T04:13:09.000Z,90.9
2023-05-15T04:14:33.336Z,90.6
2023-05-15T04:15:41.000Z,90.7
2023-05-15T04:17:05.474Z,90.7
2023-05-15T04:18:21.911Z,90.7
2023-05-15T04:19:37.861Z,90.4
2023-05-15T04:20:54.055Z,90.3
2023-05-15T04:22:10.492Z,90.5
2023-05-15T04:23:18.000Z,90.7
2023-05-15T04:24:34.000Z,90.7
2023-05-15T04:25:59.080Z,90.7
2023-05-15T04:27:15.272Z,90.1
2023-05-15T04:29:46.427Z,89.5
2023-05-15T04:31:02.621Z,89.8
2023-05-15T04:32:11.000Z,89.9
2023-05-15T04:33:35.258Z,89.6
2023-05-15T04:34:51.445Z,89.6
2023-05-15T04:36:07.646Z,89.4
2023-05-15T04:37:15.000Z,88.8
2023-05-15T04:38:31.000Z,88.8
2023-05-15T04:39:48.000Z,88.8
2023-05-15T04:41:12.423Z,88.7
2023-05-15T04:42:28.613Z,88.6
2023-05-15T04:43:36.000Z,89
2023-05-15T04:44:51.000Z,88
2023-05-15T04:46:08.000Z,87.6
2023-05-15T04:47:24.000Z,87.4
2023-05-15T04:48:48.595Z,87.4
2023-05-15T04:49:56.000Z,87
2023-05-15T04:51:20.985Z,87.1
2023-05-15T04:52:29.000Z,87.8
2023-05-15T04:53:53.123Z,87.9
2023-05-15T04:55:09.566Z,88.1
2023-05-15T04:56:17.000Z,88.3
2023-05-15T04:57:41.946Z,88.2
2023-05-15T04:58:57.898Z,88.3
2023-05-15T05:00:06.000Z,88.6
2023-05-15T05:01:29.549Z,88.7
2023-05-15T05:02:37.000Z,88.8
2023-05-15T05:04:01.930Z,88.7
2023-05-15T05:05:10.000Z,88.8
2023-05-15T05:06:26.000Z,88.8
2023-05-15T05:07:42.000Z,88.8
2023-05-15T05:08:58.000Z,88.7
2023-05-15T05:10:22.900Z,88.3
2023-05-15T05:11:31.000Z,88.2
2023-05-15T05:12:55.296Z,88.1
2023-05-15T05:14:11.489Z,88.2
2023-05-15T05:15:19.000Z,88.4
2023-05-15T05:16:35.000Z,88.3
2023-05-15T05:17:51.000Z,88.1
2023-05-15T05:19:15.030Z,88
2023-05-15T05:20:23.000Z,88.2
2023-05-15T05:21:47.660Z,88
2023-05-15T05:22:55.000Z,87.9
2023-05-15T05:24:11.000Z,87.9
2023-05-15T05:25:28.000Z,88
2023-05-15T05:26:44.000Z,88.5
2023-05-15T05:28:00.000Z,88.4
2023-05-15T05:29:24.831Z,88.2
2023-05-15T05:30:32.000Z,88.4
2023-05-15T05:31:56.966Z,88
2023-05-15T05:33:13.404Z,88.3
2023-05-15T05:34:21.000Z,88
2023-05-15T05:35:44.806Z,87.8
2023-05-15T05:37:00.756Z,87.5
2023-05-15T05:38:09.000Z,86.8
2023-05-15T05:39:25.000Z,87.4
2023-05-15T05:40:49.337Z,86.9
2023-05-15T05:42:05.778Z,86.5
2023-05-15T05:43:13.000Z,86.8
2023-05-15T05:44:30.000Z,86.7
2023-05-15T05:45:46.000Z,87.1
2023-05-15T05:47:02.000Z,86.5
2023-05-15T05:48:18.000Z,86.7
2023-05-15T05:49:34.000Z,86.7
2023-05-15T05:50:58.887Z,86.5
2023-05-15T05:52:14.097Z,85.7
2023-05-15T05:53:30.545Z,85.7
2023-05-15T05:54:38.000Z,85.7
2023-05-15T05:56:02.678Z,85.3
2023-05-15T05:57:18.871Z,85.3
2023-05-15T05:58:35.307Z,85.2
2023-05-15T05:59:43.000Z,84.9
2023-05-15T06:01:07.702Z,84.8
2023-05-15T06:02:15.000Z,84.6
2023-05-15T06:03:32.000Z,84.7
2023-05-15T06:04:56.033Z,84.7
2023-05-15T06:06:04.000Z,84.6
2023-05-15T06:07:28.420Z,84.6
2023-05-15T06:08:43.629Z,84.6
2023-05-15T06:09:51.000Z,84.9
2023-05-15T06:11:16.264Z,85.3
2023-05-15T06:12:24.000Z,85
2023-05-15T06:13:48.404Z,85.3
2023-05-15T06:14:56.000Z,85.8
2023-05-15T06:16:21.036Z,85.2
2023-05-15T06:17:29.000Z,85.3
2023-05-15T06:18:53.428Z,85.5
2023-05-15T06:20:01.000Z,85.7
2023-05-15T06:21:17.000Z,85.7
2023-05-15T06:22:33.000Z,85.5
2023-05-15T06:23:58.196Z,86.3
2023-05-15T06:25:14.390Z,85.8
2023-05-15T06:26:21.000Z,86.2
2023-05-15T06:27:37.000Z,85.8
2023-05-15T06:28:53.000Z,85.5
2023-05-15T06:30:10.000Z,85.9
2023-05-15T06:31:26.000Z,85.9
2023-05-15T06:32:50.325Z,85.4
2023-05-15T06:33:58.000Z,85.2
2023-05-15T06:35:22.953Z,85.3
2023-05-15T06:36:31.000Z,84.9
2023-05-15T06:37:55.349Z,84.7
2023-05-15T06:39:03.000Z,84.9
2023-05-15T06:40:27.730Z,85.4
2023-05-15T06:41:35.000Z,85.6
2023-05-15T06:42:51.000Z,85.6
2023-05-15T06:44:15.086Z,85.8
2023-05-15T06:45:31.281Z,85.5
2023-05-15T06:46:47.475Z,85.7
2023-05-15T06:47:55.000Z,85.5
2023-05-15T06:49:20.111Z,85.5
2023-05-15T06:50:36.314Z,85.2
2023-05-15T06:51:44.000Z,85
2023-05-15T06:53:00.000Z,84.9
2023-05-15T06:54:16.000Z,85.2
2023-05-15T06:55:33.000Z,85.4
2023-05-15T06:56:49.000Z,85.5
2023-05-15T06:58:05.000Z,85.8
2023-05-15T06:59:28.439Z,85.5
2023-05-15T07:00:36.000Z,85.2
2023-05-15T07:01:52.000Z,85.2
2023-05-15T07:03:17.275Z,85.2
2023-05-15T07:04:33.465Z,84.6
2023-05-15T07:05:41.000Z,84.4
2023-05-15T07:07:05.857Z,84.2
2023-05-15T07:08:22.045Z,84.5
2023-05-15T07:09:30.000Z,84.3
2023-05-15T07:10:54.448Z,84.3
2023-05-15T07:12:10.637Z,84.4
2023-05-15T07:13:26.586Z,84.5
2023-05-15T07:14:42.781Z,84.6
2023-05-15T07:15:57.993Z,84.8
2023-05-15T07:17:06.000Z,84.4
2023-05-15T07:18:30.383Z,84.7
2023-05-15T07:19:38.000Z,84.2
2023-05-15T07:21:03.017Z,84.1
2023-05-15T07:22:11.000Z,83.9
2023-05-15T07:23:27.000Z,83.7
2023-05-15T07:24:43.000Z,83.9
2023-05-15T07:25:59.000Z,83.4
2023-05-15T07:27:23.998Z,83.5
2023-05-15T07:28:32.000Z,83.4
2023-05-15T07:29:48.000Z,83.5
2023-05-15T07:31:04.000Z,83.4
2023-05-15T07:32:19.000Z,83.4
2023-05-15T07:33:35.000Z,83
2023-05-15T07:34:59.941Z,83.1
2023-05-15T07:36:16.137Z,83.2
2023-05-15T07:37:23.000Z,82.9
2023-05-15T07:38:47.804Z,83.3
2023-05-15T07:39:55.000Z,83.4
2023-05-15T07:41:19.941Z,83.6
2023-05-15T07:42:28.000Z,84.1
2023-05-15T07:43:44.000Z,83.9
2023-05-15T07:45:00.000Z,84.2
2023-05-15T07:46:16.000Z,84.2
2023-05-15T07:47:41.163Z,84.1
2023-05-15T07:48:49.000Z,83.9
2023-05-15T07:50:13.554Z,84
2023-05-15T07:51:21.000Z,84
2023-05-15T07:52:45.701Z,83.8
2023-05-15T07:54:00.913Z,84.2
2023-05-15T07:55:17.356Z,84.1
2023-05-15T07:56:33.553Z,84.3
2023-05-15T07:57:49.741Z,84.5
2023-05-15T07:58:57.000Z,84
2023-05-15T08:00:14.000Z,83.7
2023-05-15T08:01:38.346Z,84.2
2023-05-15T08:02:54.281Z,83.8
2023-05-15T08:04:02.000Z,84.1
2023-05-15T08:05:26.672Z,84
2023-05-15T08:06:43.112Z,83.9
2023-05-15T08:07:59.063Z,83.7
2023-05-15T08:09:15.259Z,83.2
2023-05-15T08:10:22.000Z,83.6
2023-05-15T08:11:46.917Z,83.2
2023-05-15T08:13:03.110Z,82.5
2023-05-15T08:14:19.305Z,82.5
2023-05-15T08:15:27.000Z,82.8
2023-05-15T08:16:43.000Z,82.3
2023-05-15T08:17:59.000Z,82.1
2023-05-15T08:19:15.000Z,81.5
2023-05-15T08:20:32.000Z,81.6
2023-05-15T08:21:56.232Z,81.9
2023-05-15T08:23:12.678Z,81.6
2023-05-15T08:24:20.000Z,81
2023-05-15T08:25:45.075Z,80.6
2023-05-15T08:27:00.282Z,80.2
2023-05-15T08:28:08.000Z,80.5
2023-05-15T08:29:32.420Z,80.3
2023-05-15T08:30:48.616Z,79.6
2023-05-15T08:32:05.066Z,80
2023-05-15T08:33:21.254Z,79.6
2023-05-15T08:34:37.454Z,79.7
2023-05-15T08:35:53.648Z,79.7
2023-05-15T08:37:09.594Z,80.1
2023-05-15T08:38:26.041Z,79.2
2023-05-15T08:39:34.000Z,79.2
2023-05-15T08:40:58.181Z,79
2023-05-15T08:42:06.000Z,79.9
2023-05-15T08:43:29.842Z,79.6
2023-05-15T08:44:37.000Z,78.6
2023-05-15T08:46:02.227Z,78
2023-05-15T08:47:10.000Z,78.7
2023-05-15T08:48:34.618Z,77.5
2023-05-15T08:49:42.000Z,77.4
2023-05-15T08:50:58.000Z,78.1
2023-05-15T08:52:15.000Z,77.7
2023-05-15T08:53:39.399Z,78.4
2023-05-15T08:54:55.349Z,77.2
2023-05-15T08:56:03.000Z,76.3
2023-05-15T08:57:27.987Z,76.3
2023-05-15T08:58:36.000Z,74.7
2023-05-15T08:59:59.398Z,75
2023-05-15T09:01:15.586Z,74.9
2023-05-15T09:02:31.538Z,73.5
2023-05-15T09:03:39.000Z,73.6
2023-05-15T09:04:56.000Z,72.9
2023-05-15T09:06:12.000Z,73.1
2023-05-15T09:07:36.564Z,72.6
2023-05-15T09:08:44.000Z,73.4
2023-05-15T09:10:08.962Z,72
2023-05-15T09:11:25.156Z,72.7
2023-05-15T09:12:41.103Z,71.4
2023-05-15T09:13:57.298Z,71.9
2023-05-15T09:15:05.000Z,73.4
2023-05-15T09:16:28.951Z,72.6
2023-05-15T09:17:44.901Z,71.8
2023-05-15T09:18:53.000Z,72.7
2023-05-15T09:20:17.543Z,72.9
2023-05-15T09:21:25.000Z,73
2023-05-15T09:22:49.684Z,71.4
2023-05-15T09:23:58.000Z,71.2
2023-05-15T09:25:22.323Z,71.9
2023-05-15T09:26:38.270Z,71.6
2023-05-15T09:27:46.000Z,69.3
2023-05-15T09:29:10.661Z,70.4
2023-05-15T09:30:18.000Z,69.2
2023-05-15T09:31:35.000Z,68.8
2023-05-15T09:32:58.264Z,69.3
2023-05-15T09:34:06.000Z,69.6
2023-05-15T09:35:22.000Z,70.4
2023-05-15T09:36:38.000Z,69.9
2023-05-15T09:38:03.294Z,70.3
2023-05-15T09:39:11.000Z,69.2
2023-05-15T09:40:27.000Z,69.6
2023-05-15T09:41:43.000Z,69.3
2023-05-15T09:42:59.000Z,67.7
2023-05-15T09:44:16.000Z,68.4
2023-05-15T09:45:40.479Z,68.1
2023-05-15T09:46:56.661Z,68.6
2023-05-15T09:48:12.612Z,69
2023-05-15T09:49:19.000Z,68.8
2023-05-15T09:50:44.263Z,68.8
2023-05-15T09:52:00.466Z,69.5
2023-05-15T09:53:16.655Z,69.3
2023-05-15T09:54:32.869Z,69
2023-05-15T09:55:48.802Z,68.8
2023-05-15T09:56:57.000Z,68.5
2023-05-15T09:58:21.439Z,68.7
2023-05-15T09:59:37.389Z,68.7
2023-05-15T10:00:53.833Z,67.6
2023-05-15T10:02:01.000Z,68.5
2023-05-15T10:03:18.000Z,68.5
2023-05-15T10:04:42.171Z,68.8
2023-05-15T10:05:49.000Z,68.7
2023-05-15T10:07:13.579Z,68.5
2023-05-15T10:08:30.022Z,68.3
2023-05-15T10:09:38.000Z,68.3
2023-05-15T10:10:54.000Z,69
2023-05-15T10:12:10.000Z,69.7
2023-05-15T10:13:26.000Z,69.6
2023-05-15T10:14:51.000Z,68.5
2023-05-15T10:16:07.194Z,68.1
2023-05-15T10:17:15.000Z,69.2
2023-05-15T10:18:39.588Z,69.8
2023-05-15T10:19:55.535Z,68.3
2023-05-15T10:21:11.995Z,68.5
2023-05-15T10:22:43.196Z,68.5
2023-05-15T10:23:43.396Z,67.7
2023-05-15T10:24:51.000Z,67.8
2023-05-15T10:26:07.000Z,67.2
2023-05-15T10:27:31.975Z,66.8
2023-05-15T10:28:47.922Z,67
2023-05-15T10:29:56.000Z,68.4
2023-05-15T10:31:12.000Z,68.3
2023-05-15T10:32:28.000Z,68.2
2023-05-15T10:33:52.958Z,69
2023-05-15T10:35:01.000Z,69.9
2023-05-15T10:36:25.096Z,68.5
2023-05-15T10:37:33.000Z,68.5
2023-05-15T10:38:48.000Z,68.8
2023-05-15T10:40:12.947Z,68.8
2023-05-15T10:41:28.894Z,69.1
2023-05-15T10:42:45.334Z,68.2
2023-05-15T10:44:01.286Z,68.8
2023-05-15T10:45:17.736Z,67.6
2023-05-15T10:46:25.000Z,66.4
2023-05-15T10:47:49.872Z,68.4
2023-05-15T10:48:58.000Z,66.4
2023-05-15T10:50:22.264Z,68.3
2023-05-15T10:51:38.460Z,67.4
2023-05-15T10:52:46.000Z,66.9
2023-05-15T10:54:10.851Z,65.3
2023-05-15T10:55:27.046Z,66.4
2023-05-15T10:56:42.507Z,67.4
2023-05-15T10:57:58.454Z,67.1
2023-05-15T10:59:06.000Z,66.7
2023-05-15T11:00:30.845Z,67.3
2023-05-15T11:01:47.041Z,68.3
2023-05-15T11:02:55.000Z,68.7
2023-05-15T11:04:19.679Z,67
2023-05-15T11:05:35.872Z,67.3
2023-05-15T11:06:52.075Z,66.6
2023-05-15T11:08:00.000Z,65.7
2023-05-15T11:09:16.000Z,66.2
2023-05-15T11:10:32.000Z,66.3
2023-05-15T11:11:56.859Z,66.2
2023-05-15T11:13:11.817Z,64.5
2023-05-15T11:14:28.014Z,65.9
2023-05-15T11:15:36.000Z,65.4
2023-05-15T11:17:00.405Z,65.2
2023-05-15T11:18:16.600Z,64.3
2023-05-15T11:19:32.796Z,63.9
2023-05-15T11:20:49.237Z,64.9
2023-05-15T11:22:05.188Z,65.9
2023-05-15T11:23:21.667Z,66.2
2023-05-15T11:24:37.579Z,66.9
2023-05-15T11:25:45.000Z,64.4
2023-05-15T11:27:09.970Z,64
2023-05-15T11:28:18.000Z,63.8
2023-05-15T11:29:33.000Z,63.5
2023-05-15T11:30:49.000Z,63.7
2023-05-15T11:32:13.770Z,63.7
2023-05-15T11:33:30.213Z,64.1
2023-05-15T11:34:38.000Z,62.4
2023-05-15T11:35:54.000Z,63.2
2023-05-15T11:37:18.554Z,63.5
2023-05-15T11:38:26.000Z,62.4
2023-05-15T11:39:50.946Z,62.1
2023-05-15T11:41:07.141Z,62.4
2023-05-15T11:42:15.000Z,62.2
2023-05-15T11:43:39.783Z,62.8
2023-05-15T11:44:55.730Z,61
2023-05-15T11:46:11.186Z,62
2023-05-15T11:47:27.137Z,61.7
2023-05-15T11:48:35.000Z,61.7
2023-05-15T11:49:59.530Z,62
2023-05-15T11:51:15.725Z,60
2023-05-15T11:52:30.943Z,61.4
2023-05-15T11:53:47.388Z,61.9
2023-05-15T11:55:03.581Z,62.8
2023-05-15T11:56:19.782Z,61.3
2023-05-15T11:57:35.984Z,60.9
2023-05-15T11:58:43.000Z,61
2023-05-15T12:00:08.360Z,60.4
2023-05-15T12:01:24.558Z,60.5
2023-05-15T12:02:32.000Z,60.2
2023-05-15T12:03:56.958Z,60.3
2023-05-15T12:05:13.147Z,61.1
2023-05-15T12:06:29.341Z,60.7
2023-05-15T12:07:45.547Z,60.8
2023-05-15T12:09:00.748Z,60.2
2023-05-15T12:10:08.000Z,62.2
2023-05-15T12:11:33.147Z,60
2023-05-15T12:12:49.093Z,60.4
2023-05-15T12:13:57.000Z,60.7
2023-05-15T12:15:21.728Z,60.2
2023-05-15T12:16:39.092Z,59.8
2023-05-15T12:17:45.000Z,59.6
2023-05-15T12:19:10.321Z,59.5
2023-05-15T12:20:18.000Z,58.5
2023-05-15T12:21:34.000Z,61.3
2023-05-15T12:22:58.660Z,57.6
2023-05-15T12:23:53.000Z,58.9
2023-05-15T12:24:14.855Z,56.7
2023-05-15T12:25:30.068Z,58.4
2023-05-15T12:26:46.264Z,59.4
2023-05-15T12:28:02.461Z,57.1
2023-05-15T12:29:18.898Z,57.9
2023-05-15T12:31:43.000Z,55.2
2023-05-15T12:32:59.000Z,56.6
2023-05-15T12:34:03.000Z,57.3
2023-05-15T12:34:23.440Z,57.9
2023-05-15T12:35:31.000Z,59.6
2023-05-15T12:36:47.000Z,58.1
2023-05-15T12:38:12.277Z,56.9
2023-05-15T12:39:28.468Z,56.7
2023-05-15T12:41:59.633Z,57.2
2023-05-15T12:43:16.088Z,56.9
2023-05-15T12:44:32.025Z,56.3
2023-05-15T12:45:40.000Z,58.1
2023-05-15T12:47:04.417Z,58.5
2023-05-15T12:48:20.613Z,57.5
2023-05-15T12:49:28.000Z,56.6
2023-05-15T12:50:53.004Z,56.2
2023-05-15T12:52:01.000Z,55
2023-05-15T12:53:25.396Z,58.3
2023-05-15T12:54:33.000Z,55.7
2023-05-15T12:55:58.035Z,56.2
2023-05-15T12:57:06.000Z,56.9
2023-05-15T12:58:29.196Z,56.3
2023-05-15T12:59:37.000Z,54.7
2023-05-15T13:01:01.588Z,54.9
2023-05-15T13:02:17.783Z,55.3
2023-05-15T13:03:26.000Z,54.5
2023-05-15T13:04:50.424Z,54.5
2023-05-15T13:06:06.372Z,54.4
2023-05-15T13:07:22.811Z,55.4
2023-05-15T13:08:38.764Z,55.3
2023-05-15T13:09:47.000Z,55.6
2023-05-15T13:11:11.157Z,55.5
2023-05-15T13:12:19.000Z,55.4
2023-05-15T13:13:35.000Z,56.4
2023-05-15T13:14:50.000Z,56.1
2023-05-15T13:16:07.000Z,55.6
2023-05-15T13:17:31.151Z,55.6
2023-05-15T13:18:47.347Z,54
2023-05-15T13:20:03.542Z,54.3
2023-05-15T13:21:19.738Z,54.4
2023-05-15T13:22:27.000Z,56.2
2023-05-15T13:23:52.378Z,55.4
2023-05-15T13:25:08.579Z,55.5
2023-05-15T13:26:16.000Z,54.3
2023-05-15T13:27:40.717Z,54.4
2023-05-15T13:28:56.914Z,54.5
2023-05-15T13:30:13.109Z,55.5
2023-05-15T13:31:20.000Z,56.5
2023-05-15T13:32:36.000Z,56.2
2023-05-15T13:34:00.714Z,55.4
2023-05-15T13:35:17.154Z,56.5
2023-05-15T13:36:33.105Z,54.5
2023-05-15T13:37:49.300Z,55.1
2023-05-15T13:38:57.000Z,54
2023-05-15T13:40:21.942Z,54
2023-05-15T13:42:54.084Z,54.8
2023-05-15T13:44:10.528Z,54.2
2023-05-15T13:46:16.414Z,53.6
2023-05-15T13:46:34.000Z,55.9
2023-05-15T13:47:49.000Z,53.6
2023-05-15T13:49:14.345Z,54.1
2023-05-15T13:50:22.000Z,54.7
2023-05-15T13:51:38.000Z,53.4
2023-05-15T13:52:54.000Z,55.3
2023-05-15T13:54:19.113Z,53.5
2023-05-15T13:55:27.000Z,53.5
2023-05-15T13:56:43.000Z,54
2023-05-15T13:58:07.452Z,54
2023-05-15T13:59:23.648Z,53.7
2023-05-15T14:00:40.093Z,53.7
2023-05-15T14:01:48.000Z,52.7
2023-05-15T14:03:04.000Z,52.8
2023-05-15T14:04:27.696Z,52
2023-05-15T14:05:43.889Z,53.1
2023-05-15T14:06:59.840Z,51.7
2023-05-15T14:08:08.000Z,51.7
2023-05-15T14:09:32.477Z,51.9
2023-05-15T14:10:48.677Z,52
2023-05-15T14:11:56.000Z,51.9
2023-05-15T14:13:20.820Z,52.2
2023-05-15T14:14:37.263Z,52.5
2023-05-15T14:15:45.000Z,52
2023-05-15T14:17:09.410Z,53.3
2023-05-15T14:18:25.605Z,50.5
2023-05-15T14:19:41.801Z,49.7
2023-05-15T14:20:57.258Z,50
2023-05-15T14:22:13.461Z,50.4
2023-05-15T14:23:29.405Z,51.9
2023-05-15T14:24:45.850Z,50.6
2023-05-15T14:26:02.041Z,50.3
2023-05-15T14:27:18.236Z,49.1
2023-05-15T14:28:34.189Z,51.2
2023-05-15T14:29:50.385Z,50.4
2023-05-15T14:31:06.831Z,49.6
2023-05-15T14:32:14.000Z,50
2023-05-15T14:33:39.216Z,50.5
2023-05-15T14:34:55.425Z,50.1
2023-05-15T14:36:03.000Z,50.8
2023-05-15T14:37:26.579Z,50.2
2023-05-15T14:38:34.000Z,51.1
2023-05-15T14:39:50.000Z,51.5
2023-05-15T14:41:07.000Z,50.4
2023-05-15T14:42:31.607Z,51.3
2023-05-15T14:43:47.558Z,52.1
2023-05-15T14:45:03.755Z,50.5
2023-05-15T14:46:11.000Z,51
2023-05-15T14:47:36.149Z,49.5
2023-05-15T14:48:52.590Z,49
2023-05-15T14:50:00.000Z,49.1
2023-05-15T14:51:16.000Z,49.5
2023-05-15T14:52:41.185Z,50.3
2023-05-15T14:53:56.391Z,50.7
2023-05-15T14:55:04.000Z,51.1
2023-05-15T14:56:20.000Z,51.5
2023-05-15T14:57:36.000Z,52.9
2023-05-15T14:58:52.000Z,52.4
2023-05-15T15:00:09.000Z,53.7
2023-05-15T15:01:25.000Z,52
2023-05-15T15:02:49.520Z,51.5
2023-05-15T15:04:05.960Z,52.6
2023-05-15T15:05:22.158Z,52.1
2023-05-15T15:06:38.107Z,53.5
2023-05-15T15:07:54.303Z,53.6
2023-05-15T15:09:02.000Z,54.3
2023-05-15T15:10:17.000Z,55.4
2023-05-15T15:11:33.000Z,55.8
2023-05-15T15:12:58.351Z,56.8
2023-05-15T15:14:14.299Z,57.8
2023-05-15T15:15:30.496Z,58.3
2023-05-15T15:16:38.000Z,58.3
2023-05-15T15:18:02.887Z,57.5
2023-05-15T15:19:11.000Z,57.3
2023-05-15T15:20:35.280Z,57.1
2023-05-15T15:21:51.723Z,56.8
2023-05-15T15:23:07.672Z,57.3
2023-05-15T15:24:15.000Z,56.8
2023-05-15T15:25:32.000Z,57.6
2023-05-15T15:26:55.277Z,56.7
2023-05-15T15:28:03.000Z,57.2
2023-05-15T15:29:19.000Z,58.6
2023-05-15T15:30:44.119Z,58.5
2023-05-15T15:32:00.313Z,60.2
2023-05-15T15:33:08.000Z,57.4
2023-05-15T15:34:24.000Z,58.2
2023-05-15T15:35:48.651Z,58
2023-05-15T15:37:04.846Z,59.1
2023-05-15T15:38:21.043Z,58.1
2023-05-15T15:39:37.484Z,58.9
2023-05-15T15:40:45.000Z,58.9
2023-05-15T15:42:01.000Z,58
2023-05-15T15:43:16.000Z,59.1
2023-05-15T15:44:41.039Z,57.4
2023-05-15T15:45:57.235Z,57.9
2023-05-15T15:47:05.000Z,58
2023-05-15T15:48:29.627Z,57
2023-05-15T15:49:37.000Z,58.2
2023-05-15T15:51:02.019Z,57.4
2023-05-15T15:52:18.214Z,58
2023-05-15T15:53:34.412Z,57.9
2023-05-15T15:55:03.840Z,58.4
2023-05-15T15:55:58.000Z,59.4
2023-05-15T15:57:22.999Z,58.8
2023-05-15T15:58:31.000Z,59.2
2023-05-15T15:59:54.408Z,59.1
2023-05-15T16:01:10.604Z,60.3
2023-05-15T16:02:18.000Z,60.4
2023-05-15T16:03:34.000Z,61.1
2023-05-15T16:04:51.000Z,61
2023-05-15T16:06:15.388Z,62.1
2023-05-15T16:07:22.000Z,61.9
2023-05-15T16:08:46.802Z,61.5
2023-05-15T16:10:03.242Z,62.4
2023-05-15T16:11:19.442Z,62.6
2023-05-15T16:12:27.000Z,62.6
2023-05-15T16:13:51.584Z,63.9
2023-05-15T16:14:59.000Z,63.7
2023-05-15T16:16:03.000Z,65.6
2023-05-15T16:16:23.972Z,64.3
2023-05-15T16:17:32.000Z,64.2
2023-05-15T16:18:48.000Z,64.3
2023-05-15T16:20:04.000Z,64.5
2023-05-15T16:21:28.747Z,64.9
2023-05-15T16:24:00.151Z,65
2023-05-15T16:25:08.000Z,65.2
2023-05-15T16:26:32.784Z,64.7
2023-05-15T16:27:40.000Z,64.5
2023-05-15T16:28:56.000Z,64.3
2023-05-15T16:30:21.119Z,65.7
2023-05-15T16:31:29.000Z,63.7
2023-05-15T16:32:45.000Z,64.5
2023-05-15T16:34:09.700Z,63
2023-05-15T16:35:17.000Z,62.9
2023-05-15T16:36:42.087Z,63.7
2023-05-15T16:37:58.281Z,63.8
2023-05-15T16:39:14.474Z,63.7
2023-05-15T16:40:21.000Z,63.9
2023-05-15T16:41:37.000Z,64.3
2023-05-15T16:42:54.000Z,64.6
2023-05-15T16:44:10.000Z,64.9
2023-05-15T16:45:26.000Z,65
2023-05-15T16:46:50.652Z,65.1
2023-05-15T16:47:58.000Z,65.3
2023-05-15T16:49:23.040Z,65.9
2023-05-15T16:50:31.000Z,66.2
2023-05-15T16:51:55.427Z,65.8
2023-05-15T16:53:03.000Z,66.5
2023-05-15T16:54:27.815Z,66.6
2023-05-15T16:55:49.910Z,66.5
2023-05-15T16:56:59.219Z,66.1
2023-05-15T16:58:53.303Z,66.6
2023-05-15T16:59:23.000Z,66
2023-05-15T17:00:48.054Z,65.9
2023-05-15T17:01:55.000Z,66.2